createdAt,value
2023-10-20T00:01:07.675Z,7.75
2023-10-20T00:03:35.489Z,7.85
2023-10-20T00:06:05.856Z,7.57
2023-10-20T00:08:33.485Z,7.80
2023-10-20T00:11:05.057Z,8.05
2023-10-20T00:13:34.637Z,8.07
2023-10-20T00:16:02.250Z,8.20
2023-10-20T00:18:29.861Z,7.28
2023-10-20T00:20:57.418Z,7.22
2023-10-20T00:23:26.470Z,7.22
2023-10-20T00:25:54.005Z,7.40
2023-10-20T00:28:21.681Z,6.75
2023-10-20T00:30:49.281Z,6.38
2023-10-20T00:33:16.974Z,7.70
2023-10-20T00:35:44.581Z,7.40
2023-10-20T00:38:12.580Z,6.93
2023-10-20T00:40:48.132Z,6.60
2023-10-20T00:43:15.782Z,6.47
2023-10-20T00:45:46.374Z,7.25
2023-10-20T00:48:14.750Z,6.45
2023-10-20T00:50:42.630Z,6.55
2023-10-20T00:53:11.262Z,6.43
2023-10-20T00:55:38.932Z,6.80
2023-10-20T00:58:09.491Z,6.00
2023-10-20T01:00:37.026Z,6.35
2023-10-20T01:03:06.013Z,6.55
2023-10-20T01:05:34.009Z,6.50
2023-10-20T01:08:01.653Z,6.90
2023-10-20T01:10:29.539Z,7.10
2023-10-20T01:12:57.077Z,6.55
2023-10-20T01:15:26.064Z,5.95
2023-10-20T01:17:53.722Z,6.18
2023-10-20T01:20:21.403Z,6.65
2023-10-20T01:22:49.004Z,6.30
2023-10-20T01:25:18.047Z,6.57
2023-10-20T01:27:45.697Z,6.05
2023-10-20T01:30:13.611Z,6.22
2023-10-20T01:32:42.924Z,6.97
2023-10-20T01:35:11.032Z,6.30
2023-10-20T01:37:38.635Z,5.93
2023-10-20T01:40:08.716Z,7.53
2023-10-20T01:42:37.734Z,6.00
2023-10-20T01:45:06.154Z,6.63
2023-10-20T01:47:33.772Z,6.25
2023-10-20T01:50:02.434Z,6.22
2023-10-20T01:52:29.975Z,5.85
2023-10-20T01:54:57.672Z,6.50
2023-10-20T01:57:25.223Z,5.95
2023-10-20T01:59:54.107Z,6.75
2023-10-20T02:02:21.791Z,7.00
2023-10-20T02:04:49.389Z,6.00
2023-10-20T02:07:17.168Z,5.60
2023-10-20T02:09:44.701Z,5.80
2023-10-20T02:12:12.464Z,4.85
2023-10-20T02:14:40.042Z,5.50
2023-10-20T02:17:09.603Z,6.10
2023-10-20T02:19:37.889Z,5.40
2023-10-20T02:22:05.817Z,7.40
2023-10-20T02:24:33.524Z,7.88
2023-10-20T02:27:01.162Z,6.68
2023-10-20T02:29:28.767Z,7.03
2023-10-20T02:31:56.408Z,7.68
2023-10-20T02:34:25.957Z,8.43
2023-10-20T02:36:53.482Z,8.75
2023-10-20T02:39:21.368Z,8.80
2023-10-20T02:41:48.940Z,9.07
2023-10-20T02:44:16.516Z,9.25
2023-10-20T02:46:45.018Z,8.82
2023-10-20T02:49:12.656Z,8.50
2023-10-20T02:51:41.541Z,8.45
2023-10-20T02:54:11.158Z,9.80
2023-10-20T02:56:38.913Z,8.85
2023-10-20T02:59:06.670Z,10.20
2023-10-20T03:01:34.319Z,9.85
2023-10-20T03:04:02.362Z,9.73
2023-10-20T03:06:29.989Z,9.95
2023-10-20T03:08:58.848Z,10.40
2023-10-20T03:11:26.445Z,11.68
2023-10-20T03:13:53.997Z,10.98
2023-10-20T03:16:22.521Z,9.73
2023-10-20T03:18:50.176Z,9.60
2023-10-20T03:21:19.262Z,9.88
2023-10-20T03:23:46.918Z,8.27
2023-10-20T03:26:15.924Z,9.02
2023-10-20T03:28:44.711Z,9.35
2023-10-20T03:31:12.557Z,9.82
2023-10-20T03:33:40.203Z,11.27
2023-10-20T03:36:08.009Z,10.20
2023-10-20T03:38:35.592Z,9.82
2023-10-20T03:41:08.140Z,9.73
2023-10-20T03:43:37.412Z,10.18
2023-10-20T03:46:06.248Z,8.82
2023-10-20T03:48:35.820Z,9.32
2023-10-20T03:51:06.236Z,8.93
2023-10-20T03:53:42.349Z,9.45
2023-10-20T03:56:10.761Z,9.63
2023-10-20T03:58:40.020Z,11.15
2023-10-20T04:01:08.276Z,10.35
2023-10-20T04:03:36.072Z,9.75
2023-10-20T04:06:07.459Z,10.48
2023-10-20T04:08:35.276Z,10.05
2023-10-20T04:11:03.005Z,9.60
2023-10-20T04:13:33.145Z,10.57
2023-10-20T04:16:13.166Z,9.30
2023-10-20T04:18:41.454Z,10.25
2023-10-20T04:21:09.420Z,10.20
2023-10-20T04:23:37.836Z,10.40
2023-10-20T04:26:06.237Z,10.65
2023-10-20T04:28:38.128Z,10.43
2023-10-20T04:31:24.789Z,10.77
2023-10-20T04:34:10.017Z,10.68
2023-10-20T04:36:55.317Z,10.07
2023-10-20T04:39:40.688Z,10.35
2023-10-20T04:42:22.138Z,11.98
2023-10-20T04:45:17.133Z,12.35
2023-10-20T04:48:03.469Z,11.63
2023-10-20T04:50:57.195Z,12.32
2023-10-20T04:53:41.788Z,10.27
2023-10-20T04:56:26.979Z,10.82
2023-10-20T04:58:59.357Z,10.65
2023-10-20T05:01:31.450Z,11.07
2023-10-20T05:04:10.632Z,10.10
2023-10-20T05:06:44.032Z,10.55
2023-10-20T05:09:14.732Z,10.15
2023-10-20T05:11:42.920Z,10.05
2023-10-20T05:14:10.706Z,10.45
2023-10-20T05:16:38.295Z,10.93
2023-10-20T05:19:07.553Z,10.30
2023-10-20T05:21:35.834Z,11.30
2023-10-20T05:24:06.029Z,12.18
2023-10-20T05:26:34.031Z,12.23
2023-10-20T05:29:02.263Z,12.90
2023-10-20T05:31:31.128Z,14.27
2023-10-20T05:33:58.933Z,13.10
2023-10-20T05:36:27.859Z,14.68
2023-10-20T05:38:55.401Z,15.25
2023-10-20T05:41:23.030Z,14.93
2023-10-20T05:43:53.566Z,15.27
2023-10-20T05:46:22.657Z,15.80
2023-10-20T05:48:50.264Z,15.93
2023-10-20T05:51:17.894Z,15.40
2023-10-20T05:53:46.838Z,15.55
2023-10-20T05:56:14.414Z,15.35
2023-10-20T05:58:41.996Z,14.88
2023-10-20T06:01:10.386Z,14.25
2023-10-20T06:03:39.142Z,14.23
2023-10-20T06:06:06.934Z,13.93
2023-10-20T06:08:34.755Z,14.40
2023-10-20T06:11:04.736Z,12.15
2023-10-20T06:13:33.848Z,11.73
2023-10-20T06:16:09.637Z,11.00
2023-10-20T06:18:37.784Z,13.38
2023-10-20T06:21:06.203Z,13.77
2023-10-20T06:23:34.340Z,14.98
2023-10-20T06:26:01.938Z,14.93
2023-10-20T06:28:30.832Z,18.83
2023-10-20T06:31:01.976Z,15.43
2023-10-20T06:33:33.776Z,16.48
2023-10-20T06:36:09.950Z,86.53
2023-10-20T06:38:46.206Z,22.42
2023-10-20T06:41:15.322Z,15.50
2023-10-20T06:43:45.237Z,15.40
2023-10-20T06:46:12.906Z,14.48
2023-10-20T06:48:40.466Z,14.48
2023-10-20T06:51:07.991Z,12.80
2023-10-20T06:53:36.391Z,12.43
2023-10-20T06:56:15.160Z,11.88
2023-10-20T06:58:45.810Z,13.07
2023-10-20T07:01:13.452Z,39.50
2023-10-20T07:03:42.041Z,15.57
2023-10-20T07:06:12.036Z,11.65
2023-10-20T07:08:40.931Z,12.57
2023-10-20T07:11:08.850Z,10.30
2023-10-20T07:13:36.415Z,9.82
2023-10-20T07:16:06.042Z,10.38
2023-10-20T07:18:33.766Z,9.50
2023-10-20T07:21:01.387Z,9.38
2023-10-20T07:23:29.116Z,9.05
2023-10-20T07:25:56.733Z,9.35
2023-10-20T07:28:24.263Z,10.07
2023-10-20T07:30:52.047Z,9.98
2023-10-20T07:33:20.982Z,9.90
2023-10-20T07:35:48.774Z,9.73
2023-10-20T07:38:16.938Z,9.98
2023-10-20T07:40:44.509Z,10.50
2023-10-20T07:43:12.216Z,10.73
2023-10-20T07:45:41.557Z,11.32
2023-10-20T07:48:09.854Z,10.82
2023-10-20T07:50:39.024Z,11.98
2023-10-20T07:53:06.726Z,70.85
2023-10-20T07:55:34.323Z,12.82
2023-10-20T07:58:01.833Z,12.65
2023-10-20T08:00:30.650Z,12.65
2023-10-20T08:02:58.466Z,13.13
2023-10-20T08:05:27.174Z,11.52
2023-10-20T08:07:59.496Z,12.07
2023-10-20T08:10:27.056Z,11.27
2023-10-20T08:12:54.977Z,10.70
2023-10-20T08:15:23.046Z,11.90
2023-10-20T08:17:52.696Z,12.20
2023-10-20T08:20:20.526Z,10.82
2023-10-20T08:22:48.171Z,12.32
2023-10-20T08:25:17.569Z,11.82
2023-10-20T08:27:47.321Z,11.70
2023-10-20T08:30:16.453Z,12.93
2023-10-20T08:32:44.276Z,13.35
2023-10-20T08:35:12.529Z,13.60
2023-10-20T08:37:40.189Z,14.48
2023-10-20T08:40:11.743Z,12.98
2023-10-20T08:42:40.951Z,14.07
2023-10-20T08:45:10.035Z,13.48
2023-10-20T08:47:37.864Z,13.50
2023-10-20T08:50:08.374Z,12.57
2023-10-20T08:52:38.884Z,12.48
2023-10-20T08:55:08.767Z,13.75
2023-10-20T08:57:36.424Z,14.55
2023-10-20T09:00:08.375Z,13.75
2023-10-20T09:02:39.295Z,14.20
2023-10-20T09:05:07.884Z,14.60
2023-10-20T09:07:35.516Z,14.10
2023-10-20T09:10:04.036Z,14.60
2023-10-20T09:12:33.759Z,15.07
2023-10-20T09:15:01.289Z,15.63
2023-10-20T09:17:34.957Z,15.77
2023-10-20T09:20:07.563Z,16.77
2023-10-20T09:25:03.959Z,17.23
2023-10-20T09:27:31.576Z,17.25
2023-10-20T09:30:00.325Z,17.52
2023-10-20T09:32:28.771Z,18.58
2023-10-20T09:34:58.998Z,18.48
2023-10-20T09:37:30.977Z,17.67
2023-10-20T09:40:06.881Z,19.83
2023-10-20T09:42:45.117Z,18.20
2023-10-20T09:45:18.264Z,19.08
2023-10-20T09:47:53.133Z,19.88
2023-10-20T09:50:24.542Z,18.67
2023-10-20T09:52:54.633Z,20.90
2023-10-20T09:55:22.737Z,18.65
2023-10-20T09:57:51.342Z,17.05
2023-10-20T10:00:31.751Z,18.73
2023-10-20T10:03:00.502Z,18.52
2023-10-20T10:05:31.974Z,17.02
2023-10-20T10:08:08.686Z,16.23
2023-10-20T10:10:36.995Z,16.95
2023-10-20T10:13:07.069Z,20.23
2023-10-20T10:15:40.412Z,20.13
2023-10-20T10:18:10.751Z,20.75
2023-10-20T10:20:46.825Z,19.33
2023-10-20T10:23:15.843Z,19.40
2023-10-20T10:25:44.997Z,18.85
2023-10-20T10:28:14.840Z,18.45
2023-10-20T10:30:44.419Z,18.75
2023-10-20T10:33:13.380Z,18.23
2023-10-20T10:35:42.893Z,18.55
2023-10-20T10:38:20.120Z,18.08
2023-10-20T10:40:49.437Z,19.20
2023-10-20T10:43:19.209Z,19.33
2023-10-20T10:45:47.229Z,17.85
2023-10-20T10:48:16.184Z,16.98
2023-10-20T10:50:48.997Z,18.27
2023-10-20T10:53:17.332Z,18.38
2023-10-20T10:55:45.918Z,16.20
2023-10-20T10:58:15.005Z,16.55
2023-10-20T11:00:44.387Z,17.48
2023-10-20T11:03:15.254Z,17.25
2023-10-20T11:05:44.959Z,18.90
2023-10-20T11:08:14.430Z,16.48
2023-10-20T11:10:44.713Z,15.98
2023-10-20T11:13:14.526Z,14.80
2023-10-20T11:15:42.605Z,15.45
2023-10-20T11:18:12.156Z,13.15
2023-10-20T11:20:42.401Z,13.13
2023-10-20T11:23:13.480Z,11.32
2023-10-20T11:25:43.149Z,8.50
2023-10-20T11:28:10.959Z,8.90
2023-10-20T11:30:40.193Z,7.40
2023-10-20T11:33:10.812Z,6.13
2023-10-20T11:35:40.789Z,5.57
2023-10-20T11:38:08.343Z,5.70
2023-10-20T11:40:37.210Z,7.95
2023-10-20T11:43:05.592Z,7.20
2023-10-20T11:45:33.540Z,6.53
2023-10-20T11:48:01.254Z,7.38
2023-10-20T11:50:29.352Z,9.82
2023-10-20T11:52:56.965Z,8.85
2023-10-20T11:55:24.746Z,12.32
2023-10-20T11:57:53.657Z,7.72
2023-10-20T12:00:22.993Z,31.13
2023-10-20T12:02:50.849Z,14.18
2023-10-20T12:05:18.662Z,17.50
2023-10-20T12:07:46.282Z,12.63
2023-10-20T12:10:14.655Z,16.70
2023-10-20T12:12:42.308Z,8.90
2023-10-20T12:15:12.821Z,9.70
2023-10-20T12:17:42.335Z,5.60
2023-10-20T12:20:11.528Z,5.13
2023-10-20T12:22:39.068Z,4.60
2023-10-20T12:25:07.535Z,4.13
2023-10-20T12:27:35.084Z,4.75
2023-10-20T12:30:02.645Z,3.60
2023-10-20T12:32:31.647Z,3.10
2023-10-20T12:34:59.247Z,2.67
2023-10-20T12:37:26.870Z,2.53
2023-10-20T12:39:55.306Z,2.15
2023-10-20T12:46:35.418Z,1.75
2023-10-20T12:49:04.572Z,1.85
2023-10-20T12:51:32.274Z,34.45
2023-10-20T12:53:59.888Z,6.07
2023-10-20T12:56:28.455Z,24.27
2023-10-20T12:58:56.597Z,32.10
2023-10-20T13:01:24.452Z,10.02
2023-10-20T13:03:52.410Z,4.80
2023-10-20T13:06:21.607Z,1.58
2023-10-20T13:08:49.319Z,2.40
2023-10-20T13:11:17.088Z,1.95
2023-10-20T13:13:44.715Z,1.30
2023-10-20T13:16:13.150Z,1.48
2023-10-20T13:18:40.866Z,1.20
2023-10-20T13:21:08.537Z,1.00
2023-10-20T13:23:37.522Z,1.25
2023-10-20T13:26:06.248Z,0.98
2023-10-20T13:28:34.237Z,0.98
2023-10-20T13:33:36.162Z,0.70
2023-10-20T13:36:05.249Z,0.82
2023-10-20T13:38:36.233Z,0.70
2023-10-20T13:41:06.481Z,3.45
2023-10-20T13:43:34.156Z,3.30
2023-10-20T13:46:02.780Z,0.70
2023-10-20T13:48:30.613Z,0.50
2023-10-20T13:50:58.436Z,0.88
2023-10-20T13:53:26.635Z,0.57
2023-10-20T13:55:54.263Z,0.50
2023-10-20T13:58:23.471Z,0.40
2023-10-20T14:00:52.475Z,0.38
2023-10-20T14:03:20.326Z,0.30
2023-10-20T14:05:55.744Z,0.10
2023-10-20T14:08:24.018Z,0.20
2023-10-20T14:10:51.761Z,0.20
2023-10-20T14:13:19.791Z,0.15
2023-10-20T14:15:50.734Z,0.40
2023-10-20T14:18:18.776Z,0.25
2023-10-20T14:20:46.691Z,0.20
2023-10-20T14:23:18.769Z,0.10
2023-10-20T14:25:46.430Z,0.30
2023-10-20T14:28:14.214Z,0.28
2023-10-20T14:30:41.775Z,0.10
2023-10-20T14:33:10.853Z,0.10
2023-10-20T14:35:38.962Z,0.20
2023-10-20T14:38:07.019Z,0.20
2023-10-20T14:40:34.619Z,0.22
2023-10-20T14:43:02.207Z,0.47
2023-10-20T14:45:29.801Z,0.30
2023-10-20T14:47:57.547Z,0.20
2023-10-20T14:50:27.733Z,0.10
2023-10-20T14:52:56.341Z,0.20
2023-10-20T14:55:24.982Z,0.30
2023-10-20T14:57:52.679Z,0.20
2023-10-20T15:00:20.421Z,0.13
2023-10-20T15:02:48.178Z,0.13
2023-10-20T15:05:16.015Z,0.13
2023-10-20T15:07:45.340Z,0.10
2023-10-20T15:10:13.143Z,0.20
2023-10-20T15:12:43.789Z,0.05
2023-10-20T15:15:11.899Z,0.10
2023-10-20T15:17:39.682Z,0.22
2023-10-20T15:20:09.808Z,0.15
2023-10-20T15:22:37.406Z,0.20
2023-10-20T15:25:07.323Z,0.13
2023-10-20T15:27:35.023Z,0.20
2023-10-20T15:30:02.760Z,0.10
2023-10-20T15:32:31.427Z,0.22
2023-10-20T15:34:59.290Z,0.20
2023-10-20T15:37:27.232Z,0.35
2023-10-20T15:40:04.158Z,0.30
2023-10-20T15:42:43.755Z,0.30
2023-10-20T15:45:12.556Z,0.45
2023-10-20T15:47:40.423Z,0.20
2023-10-20T15:50:08.825Z,0.30
2023-10-20T15:52:36.429Z,0.63
2023-10-20T15:55:05.244Z,0.52
2023-10-20T15:57:33.042Z,0.80
2023-10-20T16:00:02.084Z,0.90
2023-10-20T16:02:29.944Z,0.85
2023-10-20T16:04:58.039Z,1.00
2023-10-20T16:07:26.198Z,1.40
2023-10-20T16:09:53.897Z,1.70
2023-10-20T16:12:21.618Z,2.13
2023-10-20T16:14:49.247Z,2.42
2023-10-20T16:17:18.225Z,1.55
2023-10-20T16:19:45.876Z,1.13
2023-10-20T16:22:14.065Z,1.13
2023-10-20T16:24:42.677Z,1.15
2023-10-20T16:27:12.885Z,1.52
2023-10-20T16:29:40.674Z,2.05
2023-10-20T16:32:08.813Z,1.30
2023-10-20T16:34:37.851Z,2.05
2023-10-20T16:37:05.776Z,2.00
2023-10-20T16:39:33.564Z,2.83
2023-10-20T16:42:01.541Z,2.17
2023-10-20T16:44:30.602Z,2.08
2023-10-20T16:47:00.001Z,1.75
2023-10-20T16:49:27.823Z,3.85
2023-10-20T16:51:56.796Z,2.95
2023-10-20T16:54:24.446Z,2.92
2023-10-20T16:56:53.142Z,3.17
2023-10-20T16:59:25.029Z,2.22
2023-10-20T17:01:52.755Z,1.70
2023-10-20T17:04:20.546Z,1.90
2023-10-20T17:06:48.288Z,1.67
2023-10-20T17:09:18.423Z,1.88
2023-10-20T17:11:46.306Z,1.83
2023-10-20T17:14:13.995Z,4.00
2023-10-20T17:16:44.014Z,3.00
2023-10-20T17:19:12.037Z,1.27
2023-10-20T17:21:39.666Z,1.27
2023-10-20T17:24:09.213Z,1.80
2023-10-20T17:26:38.351Z,1.67
2023-10-20T17:29:06.776Z,1.17
2023-10-20T17:31:34.943Z,1.75
2023-10-20T17:34:02.795Z,1.42
2023-10-20T17:36:30.642Z,1.85
2023-10-20T17:38:58.829Z,11.40
2023-10-20T17:41:26.478Z,2.30
2023-10-20T17:43:56.952Z,1.58
2023-10-20T17:46:24.549Z,1.73
2023-10-20T17:48:52.473Z,1.40
2023-10-20T17:51:20.088Z,1.90
2023-10-20T17:53:47.746Z,1.98
2023-10-20T17:56:15.558Z,2.30
2023-10-20T17:58:43.644Z,1.60
2023-10-20T18:01:15.243Z,2.00
2023-10-20T18:03:44.758Z,1.70
2023-10-20T18:06:14.754Z,1.88
2023-10-20T18:08:45.566Z,1.65
2023-10-20T18:11:16.545Z,1.98
2023-10-20T18:13:46.094Z,1.88
2023-10-20T18:16:16.856Z,1.55
2023-10-20T18:18:46.237Z,1.98
2023-10-20T18:21:14.372Z,1.50
2023-10-20T18:23:42.181Z,2.40
2023-10-20T18:26:09.841Z,2.30
2023-10-20T18:28:37.748Z,1.75
2023-10-20T18:31:12.645Z,1.90
2023-10-20T18:33:42.359Z,2.20
2023-10-20T18:36:10.514Z,2.60
2023-10-20T18:38:38.217Z,2.33
2023-10-20T18:41:06.347Z,2.05
2023-10-20T18:43:34.840Z,2.28
2023-10-20T18:46:03.377Z,8.38
2023-10-20T18:48:31.170Z,5.50
2023-10-20T18:51:06.241Z,2.92
2023-10-20T18:53:49.172Z,3.80
2023-10-20T18:56:16.916Z,5.05
2023-10-20T18:58:47.556Z,2.60
2023-10-20T19:01:15.913Z,2.40
2023-10-20T19:03:43.900Z,2.10
2023-10-20T19:06:14.284Z,2.50
2023-10-20T19:08:42.121Z,2.10
2023-10-20T19:11:11.499Z,2.05
2023-10-20T19:13:40.223Z,2.20
2023-10-20T19:16:07.893Z,2.72
2023-10-20T19:18:35.662Z,2.40
2023-10-20T19:21:05.943Z,2.35
2023-10-20T19:23:36.521Z,2.00
2023-10-20T19:26:08.666Z,2.00
2023-10-20T19:28:36.493Z,2.55
2023-10-20T19:31:05.291Z,2.10
2023-10-20T19:33:33.481Z,2.05
2023-10-20T19:36:01.774Z,3.58
2023-10-20T19:38:29.441Z,2.60
2023-10-20T19:40:58.768Z,3.10
2023-10-20T19:43:27.112Z,2.35
2023-10-20T19:45:55.018Z,2.13
2023-10-20T19:48:22.646Z,2.03
2023-10-20T19:50:51.191Z,2.00
2023-10-20T19:53:18.856Z,2.33
2023-10-20T19:55:47.301Z,1.95
2023-10-20T19:58:16.390Z,2.15
2023-10-20T20:00:44.061Z,1.75
2023-10-20T20:03:12.393Z,1.58
2023-10-20T20:05:40.604Z,1.83
2023-10-20T20:08:08.921Z,1.80
2023-10-20T20:10:36.517Z,1.83
2023-10-20T20:13:04.619Z,1.65
2023-10-20T20:15:33.645Z,9.57
2023-10-20T20:18:01.386Z,9.85
2023-10-20T20:20:29.280Z,5.28
2023-10-20T20:22:56.801Z,1.45
2023-10-20T20:25:24.454Z,0.93
2023-10-20T20:27:53.333Z,0.95
2023-10-20T20:30:23.283Z,0.98
2023-10-20T20:32:52.324Z,1.08
2023-10-20T20:35:21.265Z,1.10
2023-10-20T20:37:48.795Z,0.95
2023-10-20T20:40:16.559Z,1.48
2023-10-20T20:42:44.150Z,1.70
2023-10-20T20:45:12.150Z,1.80
2023-10-20T20:47:39.928Z,2.00
2023-10-20T20:50:18.862Z,1.85
2023-10-20T20:52:54.054Z,2.53
2023-10-20T20:55:21.678Z,2.13
2023-10-20T20:57:49.239Z,2.25
2023-10-20T21:00:17.711Z,2.30
2023-10-20T21:02:45.347Z,2.65
2023-10-20T21:05:14.639Z,2.22
2023-10-20T21:07:42.207Z,2.50
2023-10-20T21:10:10.536Z,2.60
2023-10-20T21:12:38.064Z,2.47
2023-10-20T21:15:08.654Z,1.85
2023-10-20T21:17:36.386Z,2.25
2023-10-20T21:20:04.803Z,1.80
2023-10-20T21:22:33.723Z,1.88
2023-10-20T21:25:01.286Z,1.60
2023-10-20T21:27:29.278Z,1.75
2023-10-20T21:29:56.933Z,1.65
2023-10-20T21:32:24.478Z,1.70
2023-10-20T21:34:52.081Z,1.60
2023-10-20T21:37:19.667Z,2.03
2023-10-20T21:39:48.659Z,1.90
2023-10-20T21:42:16.305Z,2.35
2023-10-20T21:44:43.852Z,1.38
2023-10-20T21:47:11.654Z,1.23
2023-10-20T21:49:39.562Z,1.60
2023-10-20T21:52:07.318Z,2.35
2023-10-20T21:54:34.923Z,11.25
2023-10-20T21:57:04.038Z,3.55
2023-10-20T21:59:32.389Z,3.78
2023-10-20T22:02:09.636Z,1.52
2023-10-20T22:04:37.958Z,1.42
2023-10-20T22:07:05.510Z,1.17
2023-10-20T22:09:46.620Z,1.83
2023-10-20T22:12:22.042Z,2.35
2023-10-20T22:14:49.673Z,2.20
2023-10-20T22:17:17.253Z,2.40
2023-10-20T22:19:44.865Z,3.08
2023-10-20T22:22:13.156Z,2.85
2023-10-20T22:24:40.659Z,3.60
2023-10-20T22:27:08.333Z,4.15
2023-10-20T22:29:37.717Z,4.25
2023-10-20T22:32:06.415Z,3.72
2023-10-20T22:34:33.928Z,4.53
2023-10-20T22:37:01.480Z,3.35
2023-10-20T22:39:29.006Z,3.00
2023-10-20T22:42:00.691Z,3.42
2023-10-20T22:44:28.627Z,4.32
2023-10-20T22:46:57.602Z,4.82
2023-10-20T22:49:25.812Z,5.43
2023-10-20T22:51:53.372Z,4.55
2023-10-20T22:54:20.982Z,4.65
2023-10-20T22:56:48.560Z,4.85
2023-10-20T22:59:16.138Z,5.25
2023-10-20T23:01:43.742Z,6.38
2023-10-20T23:04:14.837Z,6.70
2023-10-20T23:06:44.849Z,7.25
2023-10-20T23:09:13.989Z,7.60
2023-10-20T23:11:41.660Z,7.45
2023-10-20T23:14:09.236Z,7.32
2023-10-20T23:16:37.089Z,7.38
2023-10-20T23:19:04.786Z,8.05
2023-10-20T23:21:33.641Z,7.00
2023-10-20T23:24:01.241Z,6.55
2023-10-20T23:26:28.825Z,5.93
2023-10-20T23:28:56.547Z,7.03
2023-10-20T23:31:24.148Z,7.35
2023-10-20T23:33:51.816Z,7.47
2023-10-20T23:36:19.687Z,7.05
2023-10-20T23:38:48.575Z,7.40
2023-10-20T23:41:16.124Z,7.15
2023-10-20T23:43:43.632Z,6.30
2023-10-20T23:46:11.167Z,6.60
2023-10-20T23:48:38.806Z,5.60
2023-10-20T23:51:06.541Z,4.70
2023-10-20T23:53:34.127Z,4.95
2023-10-20T23:56:03.040Z,4.40
2023-10-20T23:58:30.560Z,4.13
